createdAt,value
2022-08-08T00:01:00.273Z,91.95
2022-08-08T00:03:59.025Z,92.09
2022-08-08T00:06:37.948Z,92.25
2022-08-08T00:09:33.111Z,91.99
2022-08-08T00:12:09.422Z,91.90
2022-08-08T00:15:00.168Z,92.38
2022-08-08T00:17:58.787Z,92.63
2022-08-08T00:20:41.065Z,92.71
2022-08-08T00:23:19.899Z,93.06
2022-08-08T00:25:54.715Z,92.99
2022-08-08T00:28:36.887Z,93.10
2022-08-08T00:32:20.137Z,93.07
2022-08-08T00:34:41.077Z,93.47
2022-08-08T00:37:47.074Z,93.49
2022-08-08T00:41:11.326Z,93.37
2022-08-08T00:44:11.007Z,93.39
2022-08-08T00:47:23.212Z,93.52
2022-08-08T00:50:09.200Z,93.49
2022-08-08T00:52:53.968Z,93.59
2022-08-08T00:55:52.796Z,93.44
2022-08-08T00:58:54.613Z,94.01
2022-08-08T01:02:04.969Z,93.62
2022-08-08T01:05:28.911Z,94.14
2022-08-08T01:08:46.785Z,94.17
2022-08-08T01:11:39.760Z,93.90
2022-08-08T01:14:53.676Z,93.89
2022-08-08T01:17:59.161Z,93.89
2022-08-08T01:20:44.194Z,94.19
2022-08-08T01:23:55.213Z,94.09
2022-08-08T01:26:51.678Z,94.25
2022-08-08T01:29:59.191Z,94.55
2022-08-08T01:32:46.819Z,94.39
2022-08-08T01:35:31.979Z,94.34
2022-08-08T01:38:27.101Z,94.70
2022-08-08T01:40:58.962Z,94.56
2022-08-08T01:43:38.811Z,94.50
2022-08-08T01:46:42.811Z,94.84
2022-08-08T01:49:51.890Z,94.33
2022-08-08T01:53:57.128Z,94.29
2022-08-08T01:56:29.381Z,94.69
2022-08-08T01:58:38.884Z,94.54
2022-08-08T02:02:00.228Z,94.49
2022-08-08T02:04:38.242Z,94.63
2022-08-08T02:07:36.963Z,94.67
2022-08-08T02:10:36.845Z,94.50
2022-08-08T02:13:52.526Z,94.54
2022-08-08T02:16:28.574Z,94.82
2022-08-08T02:19:26.845Z,94.64
2022-08-08T02:22:28.406Z,94.58
2022-08-08T02:25:11.527Z,94.52
2022-08-08T02:28:01.058Z,94.69
2022-08-08T02:31:04.863Z,95.14
2022-08-08T02:34:14.807Z,95.18
2022-08-08T02:37:53.019Z,95.17
2022-08-08T02:40:16.779Z,94.94
2022-08-08T02:44:32.884Z,95.42
2022-08-08T02:45:51.415Z,95.38
2022-08-08T02:48:54.666Z,95.19
2022-08-08T02:51:56.365Z,95.25
2022-08-08T02:55:20.672Z,95.41
2022-08-08T02:58:10.805Z,95.29
2022-08-08T03:01:08.835Z,95.56
2022-08-08T03:05:02.765Z,95.64
2022-08-08T03:07:09.579Z,95.53
2022-08-08T03:10:31.504Z,95.61
2022-08-08T03:13:02.659Z,95.67
2022-08-08T03:16:07.554Z,95.93
2022-08-08T03:18:57.259Z,95.52
2022-08-08T03:21:26.997Z,95.64
2022-08-08T03:24:07.514Z,95.57
2022-08-08T03:26:42.631Z,95.54
2022-08-08T03:29:20.819Z,95.61
2022-08-08T03:32:21.919Z,95.29
2022-08-08T03:34:56.647Z,95.45
2022-08-08T03:37:59.313Z,95.54
2022-08-08T03:40:11.031Z,95.60
2022-08-08T03:42:58.571Z,95.35
2022-08-08T03:46:06.015Z,95.77
2022-08-08T03:49:09.434Z,95.41
2022-08-08T03:51:15.511Z,95.35
2022-08-08T03:53:47.821Z,95.37
2022-08-08T03:56:31.262Z,95.32
2022-08-08T03:58:59.299Z,95.28
2022-08-08T04:02:31.804Z,95.56
2022-08-08T04:04:23.053Z,95.16
2022-08-08T04:06:57.857Z,95.35
2022-08-08T04:09:28.391Z,95.29
2022-08-08T04:12:13.576Z,95.40
2022-08-08T04:14:44.928Z,95.31
2022-08-08T04:17:22.557Z,95.46
2022-08-08T04:19:59.646Z,95.41
2022-08-08T04:22:29.504Z,95.13
2022-08-08T04:24:56.358Z,95.75
2022-08-08T04:28:01.362Z,95.41
2022-08-08T04:30:18.435Z,95.28
2022-08-08T04:32:49.824Z,95.24
2022-08-08T04:35:17.522Z,95.16
2022-08-08T04:37:46.478Z,95.03
2022-08-08T04:40:15.957Z,94.93
2022-08-08T04:42:46.756Z,95.06
2022-08-08T04:45:23.726Z,94.96
2022-08-08T04:47:52.280Z,94.88
2022-08-08T04:50:25.537Z,95.34
2022-08-08T04:53:00.954Z,94.85
2022-08-08T04:55:47.857Z,95.23
2022-08-08T04:58:19.362Z,95.02
2022-08-08T05:00:48.301Z,95.25
2022-08-08T05:03:18.779Z,95.36
2022-08-08T05:06:13.345Z,95.06
2022-08-08T05:08:45.621Z,95.26
2022-08-08T05:11:18.753Z,95.38
2022-08-08T05:13:58.272Z,94.95
2022-08-08T05:16:50.925Z,95.31
2022-08-08T05:20:12.761Z,94.90
2022-08-08T05:22:01.366Z,95.20
2022-08-08T05:24:27.811Z,95.01
2022-08-08T05:26:57.491Z,95.24
2022-08-08T05:29:27.075Z,95.00
2022-08-08T05:32:03.111Z,95.16
2022-08-08T05:34:55.371Z,95.21
2022-08-08T05:37:39.092Z,94.74
2022-08-08T05:40:11.946Z,94.79
2022-08-08T05:42:43.950Z,94.54
2022-08-08T05:45:25.543Z,94.45
2022-08-08T05:48:01.596Z,94.28
2022-08-08T05:50:36.050Z,93.45
2022-08-08T05:53:22.894Z,93.16
2022-08-08T05:56:10.179Z,91.86
2022-08-08T05:58:54.177Z,90.60
2022-08-08T06:01:56.250Z,90.63
2022-08-08T06:04:22.875Z,90.90
2022-08-08T06:06:52.711Z,89.57
2022-08-08T06:09:59.176Z,88.89
2022-08-08T06:12:14.305Z,88.29
2022-08-08T06:14:47.926Z,87.99
2022-08-08T06:17:19.638Z,87.09
2022-08-08T06:19:47.774Z,86.48
2022-08-08T06:25:00.615Z,86.23
2022-08-08T06:27:48.161Z,85.03
2022-08-08T06:30:26.122Z,83.72
2022-08-08T06:33:01.297Z,83.21
2022-08-08T06:36:07.191Z,81.44
2022-08-08T06:38:21.602Z,80.62
2022-08-08T06:41:03.874Z,80.34
2022-08-08T06:43:35.739Z,80.82
2022-08-08T06:46:04.266Z,79.53
2022-08-08T06:48:36.301Z,77.40
2022-08-08T06:51:07.776Z,77.56
2022-08-08T06:53:39.669Z,76.84
2022-08-08T06:56:08.579Z,77.05
2022-08-08T06:58:35.456Z,76.55
2022-08-08T07:01:11.602Z,74.41
2022-08-08T07:04:36.819Z,74.53
2022-08-08T07:06:56.072Z,67.97
2022-08-08T07:09:45.105Z,65.31
2022-08-08T07:12:30.549Z,65.10
2022-08-08T07:15:05.480Z,62.35
2022-08-08T07:18:01.888Z,60.64
2022-08-08T07:20:34.879Z,58.47
2022-08-08T07:24:02.038Z,57.87
2022-08-08T07:26:29.025Z,55.61
2022-08-08T07:29:05.367Z,54.60
2022-08-08T07:31:35.388Z,53.65
2022-08-08T07:34:04.255Z,54.20
2022-08-08T07:36:42.066Z,56.68
2022-08-08T07:39:18.059Z,55.77
2022-08-08T07:42:03.584Z,53.21
2022-08-08T07:44:37.356Z,54.70
2022-08-08T07:47:06.754Z,55.24
2022-08-08T07:49:33.876Z,53.06
2022-08-08T07:52:01.971Z,51.76
2022-08-08T07:54:38.039Z,53.19
2022-08-08T07:57:36.162Z,50.53
2022-08-08T08:00:13.416Z,51.10
2022-08-08T08:02:43.205Z,50.51
2022-08-08T08:05:15.580Z,50.47
2022-08-08T08:07:43.003Z,48.78
2022-08-08T08:10:18.008Z,50.30
2022-08-08T08:13:25.710Z,53.45
2022-08-08T08:16:13.156Z,51.16
2022-08-08T08:18:55.479Z,49.13
2022-08-08T08:21:44.151Z,48.38
2022-08-08T08:24:12.764Z,47.64
2022-08-08T08:26:39.374Z,46.20
2022-08-08T08:29:13.871Z,50.14
2022-08-08T08:31:43.029Z,48.75
2022-08-08T08:34:09.553Z,48.05
2022-08-08T08:36:36.038Z,49.67
2022-08-08T08:39:07.559Z,45.68
2022-08-08T08:41:48.575Z,43.54
2022-08-08T08:44:16.497Z,46.95
2022-08-08T08:46:50.976Z,46.12
2022-08-08T08:49:25.636Z,45.97
2022-08-08T08:51:58.983Z,44.40
2022-08-08T08:54:27.866Z,40.99
2022-08-08T08:57:00.323Z,42.73
2022-08-08T08:59:58.944Z,43.45
2022-08-08T09:02:21.822Z,46.84
2022-08-08T09:04:50.296Z,51.90
2022-08-08T09:07:23.559Z,53.12
2022-08-08T09:09:55.124Z,47.21
2022-08-08T09:12:27.390Z,46.00
2022-08-08T09:14:56.953Z,45.75
2022-08-08T09:17:40.736Z,42.93
2022-08-08T09:21:58.977Z,39.50
2022-08-08T09:22:58.709Z,40.54
2022-08-08T09:25:36.265Z,38.77
2022-08-08T09:28:12.443Z,36.53
2022-08-08T09:31:12.896Z,39.06
2022-08-08T09:34:28.294Z,44.58
2022-08-08T09:36:32.516Z,46.33
2022-08-08T09:39:00.191Z,49.31
2022-08-08T09:42:14.061Z,47.97
2022-08-08T09:44:49.446Z,49.79
2022-08-08T09:48:03.844Z,51.37
2022-08-08T09:50:13.898Z,56.01
2022-08-08T09:52:57.490Z,57.73
2022-08-08T09:55:31.727Z,57.29
2022-08-08T09:58:40.560Z,59.32
2022-08-08T10:01:15.521Z,59.51
2022-08-08T10:04:02.433Z,59.22
2022-08-08T10:06:32.404Z,61.43
2022-08-08T10:09:03.997Z,60.19
2022-08-08T10:12:26.932Z,61.01
2022-08-08T10:14:34.850Z,58.80
2022-08-08T10:17:57.235Z,58.49
2022-08-08T10:20:04.273Z,58.07
2022-08-08T10:22:33.516Z,57.15
2022-08-08T10:25:05.773Z,58.01
2022-08-08T10:27:42.133Z,58.23
2022-08-08T10:30:16.456Z,55.72
2022-08-08T10:33:00.306Z,56.68
2022-08-08T10:36:09.282Z,58.45
2022-08-08T10:38:19.540Z,57.67
2022-08-08T10:40:51.787Z,49.15
2022-08-08T10:43:18.595Z,46.53
2022-08-08T10:45:57.139Z,42.12
2022-08-08T10:48:58.453Z,39.73
2022-08-08T10:51:31.488Z,38.77
2022-08-08T10:54:07.659Z,43.53
2022-08-08T10:56:35.545Z,43.23
2022-08-08T10:59:10.148Z,44.10
2022-08-08T11:01:39.386Z,44.30
2022-08-08T11:04:10.413Z,40.84
2022-08-08T11:06:41.781Z,40.38
2022-08-08T11:09:19.977Z,38.45
2022-08-08T11:12:04.517Z,37.26
2022-08-08T11:14:58.070Z,35.96
2022-08-08T11:17:29.303Z,36.29
2022-08-08T11:20:27.529Z,32.55
2022-08-08T11:22:59.622Z,32.70
2022-08-08T11:25:53.220Z,32.99
2022-08-08T11:28:23.796Z,33.90
2022-08-08T11:30:55.763Z,34.14
2022-08-08T11:33:51.886Z,35.21
2022-08-08T11:36:14.369Z,40.26
2022-08-08T11:38:55.511Z,45.99
2022-08-08T11:41:28.193Z,47.77
2022-08-08T11:44:00.527Z,52.66
2022-08-08T11:46:31.407Z,50.23
2022-08-08T11:49:00.052Z,51.91
2022-08-08T11:51:38.792Z,53.67
2022-08-08T11:54:26.630Z,53.15
2022-08-08T11:56:56.607Z,51.99
2022-08-08T11:59:58.421Z,51.63
2022-08-08T12:02:33.442Z,45.16
2022-08-08T12:05:13.157Z,39.77
2022-08-08T12:07:50.937Z,40.80
2022-08-08T12:10:23.583Z,41.75
2022-08-08T12:13:00.861Z,45.26
2022-08-08T12:15:39.917Z,43.64
2022-08-08T12:18:25.343Z,45.46
2022-08-08T12:20:54.892Z,35.95
2022-08-08T12:23:43.462Z,33.59
2022-08-08T12:26:28.496Z,35.85
2022-08-08T12:29:17.962Z,35.63
2022-08-08T12:31:53.919Z,34.55
2022-08-08T12:34:37.154Z,38.89
2022-08-08T12:37:05.537Z,34.24
2022-08-08T12:39:37.183Z,34.61
2022-08-08T12:42:22.096Z,34.53
2022-08-08T12:45:54.175Z,37.93
2022-08-08T12:48:10.584Z,35.05
2022-08-08T12:50:54.819Z,34.88
2022-08-08T12:53:37.806Z,35.45
2022-08-08T12:56:19.315Z,37.94
2022-08-08T12:58:52.220Z,42.11
2022-08-08T13:01:24.764Z,47.15
2022-08-08T13:04:18.880Z,44.97
2022-08-08T13:07:07.030Z,48.29
2022-08-08T13:09:43.095Z,46.34
2022-08-08T13:12:44.482Z,45.45
2022-08-08T13:15:16.419Z,44.60
2022-08-08T13:18:08.782Z,42.30
2022-08-08T13:20:30.374Z,44.96
2022-08-08T13:23:41.236Z,45.08
2022-08-08T13:25:49.980Z,46.67
2022-08-08T13:28:17.508Z,46.48
2022-08-08T13:30:44.240Z,46.38
2022-08-08T13:33:18.426Z,47.42
2022-08-08T13:35:50.602Z,47.55
2022-08-08T13:38:18.056Z,48.71
2022-08-08T13:40:45.172Z,47.37
2022-08-08T13:43:13.624Z,46.79
2022-08-08T13:45:43.146Z,46.74
2022-08-08T13:48:15.547Z,49.08
2022-08-08T13:50:50.942Z,49.41
2022-08-08T13:53:36.262Z,49.22
2022-08-08T13:56:07.053Z,48.26
2022-08-08T13:58:49.199Z,48.75
2022-08-08T14:01:33.138Z,47.99
2022-08-08T14:04:21.356Z,48.94
2022-08-08T14:06:48.161Z,47.03
2022-08-08T14:09:25.548Z,47.99
2022-08-08T14:12:00.493Z,50.54
2022-08-08T14:14:45.130Z,51.02
2022-08-08T14:17:22.497Z,49.37
2022-08-08T14:20:14.723Z,48.83
2022-08-08T14:22:55.105Z,48.00
2022-08-08T14:25:22.587Z,47.12
2022-08-08T14:28:00.008Z,48.22
2022-08-08T14:30:33.635Z,49.04
2022-08-08T14:33:00.294Z,48.71
2022-08-08T14:35:35.076Z,47.07
2022-08-08T14:38:09.536Z,48.87
2022-08-08T14:40:52.962Z,50.65
2022-08-08T14:44:01.867Z,51.64
2022-08-08T14:46:15.281Z,52.64
2022-08-08T14:48:57.144Z,50.88
2022-08-08T14:51:30.944Z,50.22
2022-08-08T14:54:13.668Z,52.99
2022-08-08T14:56:42.789Z,55.28
2022-08-08T14:59:31.708Z,54.08
2022-08-08T15:01:58.791Z,53.58
2022-08-08T15:04:26.237Z,53.27
2022-08-08T15:06:52.736Z,53.27
2022-08-08T15:09:19.388Z,51.79
2022-08-08T15:11:53.154Z,54.18
2022-08-08T15:14:20.778Z,53.32
2022-08-08T15:16:52.758Z,54.89
2022-08-08T15:19:19.655Z,53.70
2022-08-08T15:21:50.080Z,53.34
2022-08-08T15:24:16.978Z,55.23
2022-08-08T15:26:52.966Z,54.96
2022-08-08T15:29:24.508Z,52.79
2022-08-08T15:32:17.863Z,53.73
2022-08-08T15:34:42.193Z,53.28
2022-08-08T15:37:09.158Z,49.69
2022-08-08T15:39:38.505Z,53.19
2022-08-08T15:42:13.173Z,52.11
2022-08-08T15:44:44.939Z,52.06
2022-08-08T15:47:15.753Z,54.09
2022-08-08T15:49:47.590Z,55.11
2022-08-08T15:52:15.846Z,53.30
2022-08-08T15:54:46.241Z,52.39
2022-08-08T15:57:15.596Z,54.21
2022-08-08T16:00:25.359Z,55.09
2022-08-08T16:02:31.313Z,53.08
2022-08-08T16:04:59.849Z,52.78
2022-08-08T16:07:39.429Z,53.62
2022-08-08T16:13:11.081Z,53.99
2022-08-08T16:13:27.732Z,53.21
2022-08-08T16:15:57.734Z,54.42
2022-08-08T16:18:26.099Z,55.74
2022-08-08T16:20:52.475Z,55.55
2022-08-08T16:23:18.930Z,56.03
2022-08-08T16:25:54.673Z,57.10
2022-08-08T16:28:34.125Z,55.75
2022-08-08T16:31:07.978Z,57.37
2022-08-08T16:33:38.855Z,56.25
2022-08-08T16:36:08.935Z,57.28
2022-08-08T16:38:44.712Z,56.71
2022-08-08T16:41:20.718Z,57.32
2022-08-08T16:43:50.862Z,58.29
2022-08-08T16:46:43.259Z,58.50
2022-08-08T16:49:07.978Z,59.38
2022-08-08T16:55:03.842Z,58.26
2022-08-08T16:55:24.256Z,57.73
2022-08-08T16:57:22.972Z,57.74
2022-08-08T17:00:01.124Z,58.08
2022-08-08T17:02:44.237Z,58.88
2022-08-08T17:05:12.927Z,58.14
2022-08-08T17:07:40.836Z,59.16
2022-08-08T17:10:10.087Z,59.54
2022-08-08T17:12:38.356Z,59.37
2022-08-08T17:15:20.460Z,59.81
2022-08-08T17:18:02.589Z,58.71
2022-08-08T17:20:31.151Z,59.49
2022-08-08T17:23:16.878Z,59.05
2022-08-08T17:25:53.613Z,59.06
2022-08-08T17:28:22.685Z,59.25
2022-08-08T17:31:01.623Z,59.96
2022-08-08T17:34:35.752Z,61.81
2022-08-08T17:36:28.666Z,61.71
2022-08-08T17:39:05.131Z,62.18
2022-08-08T17:41:48.480Z,64.05
2022-08-08T17:44:27.041Z,64.67
2022-08-08T17:46:55.350Z,61.91
2022-08-08T17:49:24.935Z,63.15
2022-08-08T17:51:55.062Z,64.94
2022-08-08T17:54:22.270Z,64.93
2022-08-08T17:56:53.839Z,65.39
2022-08-08T17:59:23.491Z,66.08
2022-08-08T18:02:00.120Z,65.19
2022-08-08T18:04:32.717Z,64.81
2022-08-08T18:07:00.937Z,64.56
2022-08-08T18:09:37.865Z,66.26
2022-08-08T18:12:04.989Z,65.43
2022-08-08T18:14:36.827Z,66.02
2022-08-08T18:17:04.245Z,66.01
2022-08-08T18:19:45.515Z,67.08
2022-08-08T18:22:33.008Z,68.05
2022-08-08T18:24:59.515Z,68.99
2022-08-08T18:27:26.324Z,68.41
2022-08-08T18:29:57.487Z,69.41
2022-08-08T18:32:23.862Z,69.19
2022-08-08T18:34:50.267Z,69.48
2022-08-08T18:37:34.470Z,70.97
2022-08-08T18:40:01.328Z,69.45
2022-08-08T18:42:27.736Z,70.61
2022-08-08T18:44:57.543Z,71.86
2022-08-08T18:47:33.550Z,72.47
2022-08-08T18:50:02.463Z,72.22
2022-08-08T18:52:30.654Z,72.25
2022-08-08T18:54:59.466Z,71.57
2022-08-08T18:57:40.688Z,72.70
2022-08-08T19:00:15.826Z,73.29
2022-08-08T19:02:55.459Z,73.62
2022-08-08T19:05:31.861Z,73.06
2022-08-08T19:08:08.514Z,73.93
2022-08-08T19:10:36.130Z,74.85
2022-08-08T19:13:03.459Z,74.88
2022-08-08T19:15:33.820Z,74.14
2022-08-08T19:18:31.877Z,75.39
2022-08-08T19:20:50.787Z,75.33
2022-08-08T19:23:18.759Z,75.26
2022-08-08T19:26:19.791Z,76.10
2022-08-08T19:28:36.473Z,76.31
2022-08-08T19:31:08.960Z,76.85
2022-08-08T19:33:52.224Z,77.57
2022-08-08T19:36:27.434Z,76.80
2022-08-08T19:38:54.205Z,77.71
2022-08-08T19:41:21.495Z,77.06
2022-08-08T19:44:03.095Z,77.90
2022-08-08T19:46:33.168Z,78.19
2022-08-08T19:48:59.861Z,78.02
2022-08-08T19:51:34.947Z,79.06
2022-08-08T19:54:09.916Z,77.92
2022-08-08T19:56:41.417Z,78.97
2022-08-08T19:59:09.600Z,79.58
2022-08-08T20:02:00.916Z,80.22
2022-08-08T20:04:23.584Z,80.76
2022-08-08T20:06:50.865Z,81.24
2022-08-08T20:09:22.856Z,81.81
2022-08-08T20:11:49.933Z,80.84
2022-08-08T20:14:34.259Z,82.33
2022-08-08T20:17:02.114Z,82.54
2022-08-08T20:19:34.283Z,82.08
2022-08-08T20:22:13.360Z,81.94
2022-08-08T20:24:55.397Z,82.85
2022-08-08T20:27:21.808Z,83.18
2022-08-08T20:30:00.016Z,83.62
2022-08-08T20:32:28.180Z,83.34
2022-08-08T20:35:01.452Z,83.70
2022-08-08T20:37:53.082Z,83.57
2022-08-08T20:40:16.596Z,84.02
2022-08-08T20:42:55.194Z,83.79
2022-08-08T20:45:58.169Z,84.42
2022-08-08T20:48:09.577Z,84.67
2022-08-08T20:50:36.169Z,84.44
2022-08-08T20:53:06.815Z,84.20
2022-08-08T20:55:43.063Z,84.19
2022-08-08T20:58:23.282Z,83.81
2022-08-08T21:00:50.032Z,83.91
2022-08-08T21:03:17.068Z,84.13
2022-08-08T21:05:58.565Z,84.31
2022-08-08T21:08:36.531Z,85.24
2022-08-08T21:11:12.475Z,84.84
2022-08-08T21:13:41.271Z,84.70
2022-08-08T21:16:20.900Z,84.87
2022-08-08T21:18:57.149Z,85.18
2022-08-08T21:21:39.345Z,85.56
2022-08-08T21:24:22.367Z,85.75
2022-08-08T21:26:54.177Z,85.57
2022-08-08T21:29:21.666Z,86.11
2022-08-08T21:32:07.866Z,86.49
2022-08-08T21:34:49.730Z,86.13
2022-08-08T21:37:19.214Z,86.00
2022-08-08T21:39:56.559Z,86.32
2022-08-08T21:42:23.708Z,86.68
2022-08-08T21:44:58.893Z,86.34
2022-08-08T21:48:05.599Z,86.24
2022-08-08T21:50:14.111Z,86.04
2022-08-08T21:54:32.857Z,85.78
2022-08-08T21:56:27.037Z,86.59
2022-08-08T21:58:13.874Z,86.37
2022-08-08T22:00:41.044Z,86.79
2022-08-08T22:03:07.841Z,86.42
2022-08-08T22:05:37.756Z,86.57
2022-08-08T22:08:08.031Z,86.44
2022-08-08T22:10:35.624Z,86.67
2022-08-08T22:13:18.623Z,86.28
2022-08-08T22:15:59.109Z,86.58
2022-08-08T22:18:31.109Z,86.72
2022-08-08T22:21:11.092Z,86.65
2022-08-08T22:23:49.412Z,86.49
2022-08-08T22:26:29.817Z,86.56
2022-08-08T22:29:05.086Z,86.93
2022-08-08T22:32:01.950Z,86.90
2022-08-08T22:34:39.546Z,86.90
2022-08-08T22:37:07.028Z,86.91
2022-08-08T22:40:01.471Z,87.40
2022-08-08T22:42:32.027Z,87.59
2022-08-08T22:45:01.758Z,87.44
2022-08-08T22:47:34.028Z,87.19
2022-08-08T22:50:03.490Z,87.26
2022-08-08T22:52:33.643Z,87.71
2022-08-08T22:55:05.329Z,87.43
2022-08-08T22:57:43.904Z,87.67
2022-08-08T23:00:13.333Z,88.18
2022-08-08T23:02:40.045Z,87.84
2022-08-08T23:05:14.410Z,87.73
2022-08-08T23:07:51.202Z,87.71
2022-08-08T23:10:25.322Z,87.92
2022-08-08T23:12:53.370Z,88.24
2022-08-08T23:16:37.577Z,88.88
2022-08-08T23:18:08.340Z,89.46
2022-08-08T23:20:43.537Z,90.06
2022-08-08T23:23:11.082Z,89.91
2022-08-08T23:25:48.306Z,90.49
2022-08-08T23:28:15.809Z,90.45
2022-08-08T23:30:44.215Z,90.20
2022-08-08T23:33:19.015Z,90.34
2022-08-08T23:36:07.384Z,90.46
2022-08-08T23:38:34.627Z,90.24
2022-08-08T23:41:01.982Z,90.73
2022-08-08T23:43:45.768Z,90.92
2022-08-08T23:49:04.472Z,91.32
2022-08-08T23:49:15.505Z,91.41
2022-08-08T23:52:04.318Z,91.51
2022-08-08T23:54:42.010Z,91.56
2022-08-08T23:57:27.597Z,91.95
